ProgreSS Ace — HPQI — position and weather

sailwx.info

Track history (hours):
 
Tides and Currents Weather Stations Pressure Air Temp Water Temp Dewpoint Dewpoint Depression Visibility Wind Speed Wind Dir Waves Ship Positions

ProgreSS Ace

Last reported at 2018-Feb-02 03:20 UTC. Time now 2018-Feb-19 16:19 UTC.
Position N 31°38' W 080°13'.
Warning: this ship's position is 17 days out of date.

Type: Cargo ship. MMSI: 353514000.

Date/timePositionNaut miles runAvg speedWind from/ knotsBaromVisibWave heightAir tempDewpointWater temp
2018-Feb-02 03:20N 31°38' W 080°13'515.8
2018-Feb-02 03:00N 31°42' W 080°10'815.7
2018-Feb-02 02:29N 31°49' W 080°04'  
2018-Jan-30 11:36N 36°49' W 075°48'4 8.9
2018-Jan-30 11:12N 36°51' W 075°52'6 8.9
2018-Jan-30 10:30N 36°55' W 075°57'8 8.2
2018-Jan-30 09:30N 37°02' W 076°04'6415.1
2018-Jan-30 05:18N 38°05' W 076°13'3118.2
2018-Jan-30 03:35N 38°35' W 076°26'118.7
2018-Jan-30 03:30N 38°36' W 076°26'918.6
2018-Jan-30 03:01N 38°45' W 076°26'1019.0
2018-Jan-30 02:31N 38°55' W 076°24'815.2
2018-Jan-30 02:01N 39°02' W 076°23'713.6
2018-Jan-30 01:30N 39°09' W 076°25'510.5
2018-Jan-30 01:00N 39°12' W 076°30'3 5.5
2018-Jan-30 00:30N 39°14' W 076°32'0 0.2
2018-Jan-30 00:00N 39°14' W 076°32'0 0.0
2018-Jan-29 23:30N 39°14' W 076°32'0 0.0
2018-Jan-29 23:00N 39°14' W 076°32'0 0.0
2018-Jan-29 22:30N 39°14' W 076°32'0 0.0
2018-Jan-29 22:00N 39°14' W 076°32'0 0.0
2018-Jan-29 21:30N 39°14' W 076°32'0 0.0
2018-Jan-29 21:00N 39°14' W 076°32'0 0.0
2018-Jan-29 20:30N 39°14' W 076°32'0 0.0
2018-Jan-29 20:00N 39°14' W 076°32'0 0.0
2018-Jan-29 19:30N 39°14' W 076°32'0 0.0
2018-Jan-29 19:00N 39°14' W 076°32'0 0.0
2018-Jan-29 18:30N 39°14' W 076°32'0 0.0
2018-Jan-29 18:00N 39°14' W 076°32'0 0.0
2018-Jan-29 17:30N 39°14' W 076°32'0 0.0
2018-Jan-29 17:00N 39°14' W 076°32'0 0.0
2018-Jan-29 16:30N 39°14' W 076°32'0 0.0
2018-Jan-29 16:00N 39°14' W 076°32'0 0.0
2018-Jan-29 15:30N 39°14' W 076°32'0 0.0
2018-Jan-29 15:00N 39°14' W 076°32'0 0.0
2018-Jan-29 14:30N 39°14' W 076°32'0 0.0
2018-Jan-29 14:00N 39°14' W 076°32'0 0.0
2018-Jan-29 13:30N 39°14' W 076°32'0 0.0
2018-Jan-29 13:00N 39°14' W 076°32'0 0.0
2018-Jan-29 12:30N 39°14' W 076°32'0 0.0
2018-Jan-29 12:00N 39°14' W 076°32'0 0.0
2018-Jan-29 11:27N 39°14' W 076°32'0 0.0
2018-Jan-29 11:00N 39°14' W 076°32'0 0.0
2018-Jan-29 10:30N 39°14' W 076°32'0 0.0
2018-Jan-29 10:00N 39°14' W 076°32'0 0.0
2018-Jan-29 09:30N 39°14' W 076°32'0 0.0
2018-Jan-29 09:00N 39°14' W 076°32'0 0.0
2018-Jan-29 08:30N 39°14' W 076°32'0 0.0
2018-Jan-29 08:00N 39°14' W 076°32'0 0.0
2018-Jan-29 07:30N 39°14' W 076°32'0 0.0
2018-Jan-29 07:00N 39°14' W 076°32'0 0.0
2018-Jan-29 06:30N 39°14' W 076°32'0 0.0
2018-Jan-29 06:00N 39°14' W 076°32'0 0.0
2018-Jan-29 05:30N 39°14' W 076°32'0 0.0
2018-Jan-29 04:57N 39°14' W 076°32'0 0.0
2018-Jan-29 04:30N 39°14' W 076°32'0 0.0
2018-Jan-29 04:00N 39°14' W 076°32'0 0.0
2018-Jan-29 03:30N 39°14' W 076°32'0 0.0
2018-Jan-29 03:00N 39°14' W 076°32'0 0.0
2018-Jan-29 02:30N 39°14' W 076°32'0 0.0
2018-Jan-29 02:00N 39°14' W 076°32'0 0.0
2018-Jan-29 01:30N 39°14' W 076°32'0 0.0
2018-Jan-29 01:00N 39°14' W 076°32'0 0.2
2018-Jan-29 00:30N 39°14' W 076°32'1 2.7
2018-Jan-29 00:00N 39°13' W 076°32'5 9.1
2018-Jan-28 23:30N 39°11' W 076°26'612.4
2018-Jan-28 23:00N 39°05' W 076°24'612.6
2018-Jan-28 22:30N 38°59' W 076°23'2 4.6
2018-Jan-28 21:58N 38°56' W 076°24'0 0.0
2018-Jan-28 21:28N 38°56' W 076°24'0 0.1
2018-Jan-28 20:58N 38°56' W 076°24'0 0.0
2018-Jan-28 20:28N 38°56' W 076°24'0 0.0
2018-Jan-28 19:58N 38°56' W 076°24'0 0.1
2018-Jan-28 19:28N 38°56' W 076°24'0 0.0
2018-Jan-28 18:58N 38°56' W 076°24'0 0.0
2018-Jan-28 18:28N 38°56' W 076°24'0 0.0
2018-Jan-28 17:58N 38°56' W 076°24'0 0.0
2018-Jan-28 17:28N 38°56' W 076°24'0 0.0
2018-Jan-28 16:58N 38°56' W 076°24'0 0.0
2018-Jan-28 16:28N 38°56' W 076°24'0 0.0
2018-Jan-28 15:58N 38°56' W 076°24'0 0.0
2018-Jan-28 15:28N 38°56' W 076°24'0 0.0
2018-Jan-28 14:58N 38°56' W 076°24'0 0.0
2018-Jan-28 14:28N 38°56' W 076°24'0 0.0
2018-Jan-28 13:58N 38°56' W 076°24'0 0.0
2018-Jan-28 13:28N 38°56' W 076°24'0 0.0
2018-Jan-28 12:58N 38°56' W 076°24'0 0.0
2018-Jan-28 12:25N 38°56' W 076°24'0 0.0
2018-Jan-28 11:58N 38°56' W 076°24'0 0.0
2018-Jan-28 11:28N 38°56' W 076°24'0 0.2
2018-Jan-28 10:58N 38°56' W 076°24'0 0.0
2018-Jan-28 10:28N 38°56' W 076°24'0 0.0
2018-Jan-28 09:58N 38°56' W 076°24'0 0.0
2018-Jan-28 09:28N 38°56' W 076°24'0 0.0
2018-Jan-28 08:58N 38°56' W 076°24'0 0.1
2018-Jan-28 08:28N 38°56' W 076°24'0 0.0
2018-Jan-28 07:58N 38°56' W 076°24'0 0.0
2018-Jan-28 07:28N 38°56' W 076°24'0 0.0
2018-Jan-28 06:58N 38°56' W 076°24'0 0.0
2018-Jan-28 06:28N 38°56' W 076°24'0 0.0
2018-Jan-28 05:58N 38°56' W 076°24'0 0.0
2018-Jan-28 05:28N 38°56' W 076°24'0 0.1
2018-Jan-28 04:58N 38°56' W 076°24'0 0.0
2018-Jan-28 04:28N 38°56' W 076°24'0 0.0
2018-Jan-28 03:58N 38°56' W 076°24'0 0.1
2018-Jan-28 03:28N 38°56' W 076°24'0 0.0
2018-Jan-28 02:58N 38°56' W 076°24'0 0.0
2018-Jan-28 02:28N 38°56' W 076°24'0 0.0
2018-Jan-28 01:58N 38°56' W 076°24'0 0.0
2018-Jan-28 01:28N 38°56' W 076°24'0 0.0
2018-Jan-28 00:58N 38°56' W 076°24'0 0.0
2018-Jan-28 00:28N 38°56' W 076°24'0 0.0
2018-Jan-27 23:58N 38°56' W 076°24'0 0.0
2018-Jan-27 23:28N 38°56' W 076°24'0 0.0
2018-Jan-27 22:58N 38°56' W 076°24'0 0.0
2018-Jan-27 22:28N 38°56' W 076°24'0 0.0
2018-Jan-27 21:58N 38°56' W 076°24'0 0.1
2018-Jan-27 21:28N 38°56' W 076°24'0 0.1
2018-Jan-27 20:58N 38°56' W 076°24'0 0.0
2018-Jan-27 20:28N 38°56' W 076°24'0 0.0
2018-Jan-27 19:58N 38°56' W 076°24'0 0.0
2018-Jan-27 19:28N 38°56' W 076°24'0 0.0
2018-Jan-27 18:58N 38°56' W 076°24'0 0.0
2018-Jan-27 18:28N 38°56' W 076°24'0 0.0
2018-Jan-27 17:58N 38°56' W 076°24'0 0.0
2018-Jan-27 17:28N 38°56' W 076°24'0 0.0
2018-Jan-27 16:58N 38°56' W 076°24'0 0.0
2018-Jan-27 16:28N 38°56' W 076°24'0 0.0
2018-Jan-27 15:58N 38°56' W 076°24'0 0.0
2018-Jan-27 15:28N 38°56' W 076°24'0 0.1
2018-Jan-27 14:58N 38°56' W 076°24'0 0.1
2018-Jan-27 14:28N 38°56' W 076°24'0 0.0
2018-Jan-27 13:58N 38°56' W 076°24'0 0.0
2018-Jan-27 13:28N 38°56' W 076°24'0 0.1
2018-Jan-27 12:58N 38°56' W 076°24'0 0.0
2018-Jan-27 12:28N 38°56' W 076°24'0 0.0
2018-Jan-27 11:58N 38°56' W 076°24'0 0.0
2018-Jan-27 11:28N 38°56' W 076°24'0 0.0
2018-Jan-27 10:58N 38°56' W 076°24'0 0.0
2018-Jan-27 10:28N 38°56' W 076°24'0 0.0
2018-Jan-27 09:58N 38°56' W 076°24'0 0.1
2018-Jan-27 09:28N 38°56' W 076°24'0 0.0
2018-Jan-27 08:58N 38°56' W 076°24'0 0.0
2018-Jan-27 08:28N 38°56' W 076°24'0 0.1
2018-Jan-27 07:58N 38°56' W 076°24'0 0.0
2018-Jan-27 07:28N 38°56' W 076°24'0 0.1
2018-Jan-27 06:58N 38°56' W 076°24'0 0.1
2018-Jan-27 06:28N 38°56' W 076°24'0 0.1
2018-Jan-27 05:58N 38°56' W 076°24'0 0.0
2018-Jan-27 05:28N 38°56' W 076°24'0 0.1
2018-Jan-27 04:58N 38°56' W 076°24'0 0.0
2018-Jan-27 04:28N 38°56' W 076°24'0 0.0
2018-Jan-27 03:58N 38°56' W 076°24'0 0.0
2018-Jan-27 03:28N 38°56' W 076°24'0 0.0
2018-Jan-27 02:58N 38°56' W 076°24'0 0.1
2018-Jan-27 02:28N 38°56' W 076°24'0 0.1
2018-Jan-27 01:58N 38°56' W 076°24'0 0.0
2018-Jan-27 01:28N 38°56' W 076°24'0 0.1
2018-Jan-27 00:58N 38°56' W 076°24'0 0.0
2018-Jan-27 00:28N 38°56' W 076°24'0 0.0
2018-Jan-26 23:55N 38°56' W 076°24'0 0.0
2018-Jan-26 23:28N 38°56' W 076°24'0 0.0
2018-Jan-26 22:58N 38°56' W 076°24'0 0.0
2018-Jan-26 22:28N 38°56' W 076°24'0 0.1
2018-Jan-26 21:58N 38°56' W 076°24'0 0.0
2018-Jan-26 21:28N 38°56' W 076°24'0 0.1
2018-Jan-26 20:58N 38°56' W 076°24'0 0.1
2018-Jan-26 20:28N 38°56' W 076°24'0 0.0
2018-Jan-26 19:58N 38°56' W 076°24'0 0.0
2018-Jan-26 19:28N 38°56' W 076°24'0 0.0
2018-Jan-26 18:58N 38°56' W 076°24'0 0.0
2018-Jan-26 18:28N 38°56' W 076°24'0 0.0
2018-Jan-26 17:58N 38°56' W 076°24'0 0.0
2018-Jan-26 17:28N 38°56' W 076°24'0 0.0
2018-Jan-26 16:58N 38°56' W 076°24'0 0.0
2018-Jan-26 16:28N 38°56' W 076°24'0 0.0
2018-Jan-26 15:58N 38°56' W 076°24'0 0.0
2018-Jan-26 15:28N 38°56' W 076°24'0 0.0
2018-Jan-26 14:58N 38°56' W 076°24'0 0.0
2018-Jan-26 14:28N 38°56' W 076°24'0 0.0
2018-Jan-26 13:58N 38°56' W 076°24'0 0.0
2018-Jan-26 13:28N 38°56' W 076°24'0 0.0
2018-Jan-26 12:58N 38°56' W 076°24'0 0.0
2018-Jan-26 12:28N 38°56' W 076°24'0 0.0
2018-Jan-26 11:58N 38°56' W 076°24'0 0.0
2018-Jan-26 11:28N 38°56' W 076°24'0 0.0
2018-Jan-26 10:55N 38°56' W 076°24'0 0.0
2018-Jan-26 10:28N 38°56' W 076°24'0 0.0
2018-Jan-26 09:58N 38°56' W 076°24'0 0.0
2018-Jan-26 09:28N 38°56' W 076°24'0 0.0
2018-Jan-26 08:58N 38°56' W 076°24'0 0.0
2018-Jan-26 08:28N 38°56' W 076°24'0 0.0
2018-Jan-26 07:58N 38°56' W 076°24'0 0.0
2018-Jan-26 07:28N 38°56' W 076°24'0 0.0
2018-Jan-26 06:58N 38°56' W 076°24'0 0.0
2018-Jan-26 06:28N 38°56' W 076°24'0 0.0
2018-Jan-26 05:58N 38°56' W 076°24'0 0.0
2018-Jan-26 05:28N 38°56' W 076°24'0 0.0
2018-Jan-26 04:58N 38°56' W 076°24'0 0.0
2018-Jan-26 04:28N 38°56' W 076°24'0 0.0
2018-Jan-26 03:58N 38°56' W 076°24'0 0.0
2018-Jan-26 03:28N 38°56' W 076°24'0 0.0
2018-Jan-26 02:58N 38°56' W 076°24'1 3.0
2018-Jan-26 02:30N 38°58' W 076°24'613.0
2018-Jan-26 02:01N 39°04' W 076°24'714.2
2018-Jan-26 01:30N 39°11' W 076°27'611.5
2018-Jan-26 01:01N 39°14' W 076°33'1 1.9
2018-Jan-26 00:28N 39°14' W 076°34'0 0.0
2018-Jan-25 23:58N 39°14' W 076°34'0 0.0
2018-Jan-25 23:28N 39°14' W 076°34'0 0.0
2018-Jan-25 22:58N 39°14' W 076°34'0 0.0
2018-Jan-25 22:28N 39°14' W 076°34'0 0.0
2018-Jan-25 21:58N 39°14' W 076°34'0 0.0
2018-Jan-25 21:28N 39°14' W 076°34'0 0.0
2018-Jan-25 20:58N 39°14' W 076°34'0 0.0
2018-Jan-25 20:28N 39°14' W 076°34'0 0.0
2018-Jan-25 19:58N 39°14' W 076°34'0 0.0
2018-Jan-25 19:28N 39°14' W 076°34'0 0.0
2018-Jan-25 18:58N 39°14' W 076°34'0 0.0
2018-Jan-25 18:28N 39°14' W 076°34'0 0.0
2018-Jan-25 17:58N 39°14' W 076°34'0 0.0
2018-Jan-25 17:28N 39°14' W 076°34'0 0.0
2018-Jan-25 16:58N 39°14' W 076°34'0 0.0
2018-Jan-25 16:28N 39°14' W 076°34'0 0.0
2018-Jan-25 15:58N 39°14' W 076°34'0 0.0
2018-Jan-25 15:28N 39°14' W 076°34'0 0.0
2018-Jan-25 14:58N 39°14' W 076°34'0 0.0
2018-Jan-25 14:28N 39°14' W 076°34'0 0.0
2018-Jan-25 13:58N 39°14' W 076°34'0 0.0
2018-Jan-25 13:28N 39°14' W 076°34'0 0.0
2018-Jan-25 12:58N 39°14' W 076°34'0 0.0
2018-Jan-25 12:28N 39°14' W 076°34'0 0.0
2018-Jan-25 11:58N 39°14' W 076°34'0 0.0
2018-Jan-25 11:28N 39°14' W 076°34'0 0.0
2018-Jan-25 10:58N 39°14' W 076°34'0 0.0
2018-Jan-25 10:28N 39°14' W 076°34'0 0.0
2018-Jan-25 09:58N 39°14' W 076°34'0 0.0
2018-Jan-25 09:28N 39°14' W 076°34'0 0.0
2018-Jan-25 08:58N 39°14' W 076°34'0 0.0
2018-Jan-25 08:28N 39°14' W 076°34'0 0.0
2018-Jan-25 07:58N 39°14' W 076°34'0 0.0
2018-Jan-25 07:28N 39°14' W 076°34'0 0.0
2018-Jan-25 06:58N 39°14' W 076°34'0 0.0
2018-Jan-25 06:28N 39°14' W 076°34'0 0.0
2018-Jan-25 05:58N 39°14' W 076°34'0 0.0
2018-Jan-25 05:28N 39°14' W 076°34'0 0.0
2018-Jan-25 04:58N 39°14' W 076°34'0 0.0
2018-Jan-25 04:28N 39°14' W 076°34'0 0.0
2018-Jan-25 03:58N 39°14' W 076°34'0 0.0
2018-Jan-25 03:28N 39°14' W 076°34'0 0.0
2018-Jan-25 02:58N 39°14' W 076°34'1 1.3
2018-Jan-25 02:30N 39°15' W 076°33'2 3.3
2018-Jan-25 02:00N 39°13' W 076°32'3 6.1
2018-Jan-25 01:30N 39°12' W 076°29'3 6.1
2018-Jan-25 01:00N 39°10' W 076°25'5 9.4
2018-Jan-25 00:31N 39°09' W 076°19'510.9
2018-Jan-25 00:00N 39°13' W 076°15'611.9
2018-Jan-24 23:30N 39°19' W 076°13'713.4
2018-Jan-24 23:00N 39°23' W 076°06'611.8
2018-Jan-24 22:30N 39°26' W 076°00'5 9.9
2018-Jan-24 22:00N 39°30' W 075°56'4 7.5
2018-Jan-24 21:30N 39°32' W 075°51'3 5.3
2018-Jan-24 21:01N 39°32' W 075°48'4 7.6
2018-Jan-24 20:30N 39°33' W 075°43'4 8.6
2018-Jan-24 20:00N 39°33' W 075°38'4 8.0
2018-Jan-24 19:31N 39°32' W 075°33'815.5
2018-Jan-24 19:01N 39°25' W 075°31'918.3
2018-Jan-24 18:31N 39°18' W 075°23'917.8
2018-Jan-24 18:00N 39°11' W 075°16'917.8
2018-Jan-24 17:31N 39°03' W 075°10'917.9
2018-Jan-24 17:01N 38°55' W 075°06'70 8.4
2018-Jan-24 08:45N 39°36' W 073°53'712.2
2018-Jan-24 08:12N 39°42' W 073°52'312.5
2018-Jan-24 07:59N 39°45' W 073°51'2611.3
2018-Jan-24 05:40N 40°11' W 073°50'3 9.2
2018-Jan-24 05:22N 40°14' W 073°50'4 9.3
2018-Jan-24 04:57N 40°18' W 073°49'4 9.3
2018-Jan-24 04:31N 40°22' W 073°49'5 8.9
2018-Jan-24 04:00N 40°27' W 073°49'4 7.9
2018-Jan-24 03:29N 40°29' W 073°53'510.5
2018-Jan-24 03:00N 40°31' W 073°59'611.2
2018-Jan-24 02:29N 40°36' W 074°03'4 7.7
2018-Jan-24 02:00N 40°39' W 074°06'2 4.3
2018-Jan-24 01:31N 40°40' W 074°09'2 4.1
2018-Jan-24 01:00N 40°42' W 074°08'0 0.2
2018-Jan-24 00:30N 40°42' W 074°08'0 0.0
2018-Jan-24 00:00N 40°42' W 074°08'0 0.0
2018-Jan-23 23:30N 40°42' W 074°08'0 0.0
2018-Jan-23 23:00N 40°42' W 074°08'0 0.0
2018-Jan-23 22:30N 40°42' W 074°08'0 0.0
2018-Jan-23 22:00N 40°42' W 074°08'0 0.0
2018-Jan-23 21:30N 40°42' W 074°08'0 0.0
2018-Jan-23 21:00N 40°42' W 074°08'0 0.0
2018-Jan-23 20:30N 40°42' W 074°08'0 0.0
2018-Jan-23 20:00N 40°42' W 074°08'0 0.0
2018-Jan-23 19:30N 40°42' W 074°08'0 0.0
2018-Jan-23 19:00N 40°42' W 074°08'0 0.0
2018-Jan-23 18:30N 40°42' W 074°08'0 0.0
2018-Jan-23 18:00N 40°42' W 074°08'0 0.0
2018-Jan-23 17:30N 40°42' W 074°08'0 0.0
2018-Jan-23 17:00N 40°42' W 074°08'0 0.0
2018-Jan-23 16:30N 40°42' W 074°08'0 0.0
2018-Jan-23 16:00N 40°42' W 074°08'0 0.0
2018-Jan-23 15:30N 40°42' W 074°08'0 0.0
2018-Jan-23 15:00N 40°42' W 074°08'0 0.0
2018-Jan-23 14:30N 40°42' W 074°08'0 0.0
2018-Jan-23 14:00N 40°42' W 074°08'0 0.0
2018-Jan-23 13:30N 40°42' W 074°08'0 0.0
2018-Jan-23 13:00N 40°42' W 074°08'0 0.0
2018-Jan-23 12:30N 40°42' W 074°08'0 0.0
2018-Jan-23 12:00N 40°42' W 074°08'0 0.2
2018-Jan-23 11:30N 40°42' W 074°08'2 3.7
2018-Jan-23 11:00N 40°40' W 074°08'1 2.9
2018-Jan-23 10:30N 40°39' W 074°07'3 6.0
2018-Jan-23 10:00N 40°39' W 074°03'4 7.5
2018-Jan-23 09:30N 40°35' W 074°02'5 9.5
2018-Jan-23 09:00N 40°31' W 073°59'5 9.3
2018-Jan-23 08:30N 40°29' W 073°54'5 9.1
2018-Jan-23 08:00N 40°27' W 073°48'4 7.8
2018-Jan-23 07:30N 40°23' W 073°47'3 6.2
2018-Jan-23 06:58N 40°20' W 073°46'  
Track history (hours):
 
Tides and Currents Weather Stations Pressure Air Temp Water Temp Dewpoint Dewpoint Depression Visibility Wind Speed Wind Dir Waves Ship Positions

ProgreSS Ace

Last reported at 2018-Feb-02 03:20 UTC. Time now 2018-Feb-19 16:19 UTC.
Position N 31°38' W 080°13'.
Warning: this ship's position is 17 days out of date.

Type: Cargo ship. MMSI: 353514000.

Date/timePositionNaut miles runAvg speedWind from/ knotsBaromVisibWave heightAir tempDewpointWater temp
2018-Feb-02 03:20N 31°38' W 080°13'515.8
2018-Feb-02 03:00N 31°42' W 080°10'815.7
2018-Feb-02 02:29N 31°49' W 080°04'  
2018-Jan-30 11:36N 36°49' W 075°48'4 8.9
2018-Jan-30 11:12N 36°51' W 075°52'6 8.9
2018-Jan-30 10:30N 36°55' W 075°57'8 8.2
2018-Jan-30 09:30N 37°02' W 076°04'6415.1
2018-Jan-30 05:18N 38°05' W 076°13'3118.2
2018-Jan-30 03:35N 38°35' W 076°26'118.7
2018-Jan-30 03:30N 38°36' W 076°26'918.6
2018-Jan-30 03:01N 38°45' W 076°26'1019.0
2018-Jan-30 02:31N 38°55' W 076°24'815.2
2018-Jan-30 02:01N 39°02' W 076°23'713.6
2018-Jan-30 01:30N 39°09' W 076°25'510.5
2018-Jan-30 01:00N 39°12' W 076°30'3 5.5
2018-Jan-30 00:30N 39°14' W 076°32'0 0.2
2018-Jan-30 00:00N 39°14' W 076°32'0 0.0
2018-Jan-29 23:30N 39°14' W 076°32'0 0.0
2018-Jan-29 23:00N 39°14' W 076°32'0 0.0
2018-Jan-29 22:30N 39°14' W 076°32'0 0.0
2018-Jan-29 22:00N 39°14' W 076°32'0 0.0
2018-Jan-29 21:30N 39°14' W 076°32'0 0.0
2018-Jan-29 21:00N 39°14' W 076°32'0 0.0
2018-Jan-29 20:30N 39°14' W 076°32'0 0.0
2018-Jan-29 20:00N 39°14' W 076°32'0 0.0
2018-Jan-29 19:30N 39°14' W 076°32'0 0.0
2018-Jan-29 19:00N 39°14' W 076°32'0 0.0
2018-Jan-29 18:30N 39°14' W 076°32'0 0.0
2018-Jan-29 18:00N 39°14' W 076°32'0 0.0
2018-Jan-29 17:30N 39°14' W 076°32'0 0.0
2018-Jan-29 17:00N 39°14' W 076°32'0 0.0
2018-Jan-29 16:30N 39°14' W 076°32'0 0.0
2018-Jan-29 16:00N 39°14' W 076°32'0 0.0
2018-Jan-29 15:30N 39°14' W 076°32'0 0.0
2018-Jan-29 15:00N 39°14' W 076°32'0 0.0
2018-Jan-29 14:30N 39°14' W 076°32'0 0.0
2018-Jan-29 14:00N 39°14' W 076°32'0 0.0
2018-Jan-29 13:30N 39°14' W 076°32'0 0.0
2018-Jan-29 13:00N 39°14' W 076°32'0 0.0
2018-Jan-29 12:30N 39°14' W 076°32'0 0.0
2018-Jan-29 12:00N 39°14' W 076°32'0 0.0
2018-Jan-29 11:27N 39°14' W 076°32'0 0.0
2018-Jan-29 11:00N 39°14' W 076°32'0 0.0
2018-Jan-29 10:30N 39°14' W 076°32'0 0.0
2018-Jan-29 10:00N 39°14' W 076°32'0 0.0
2018-Jan-29 09:30N 39°14' W 076°32'0 0.0
2018-Jan-29 09:00N 39°14' W 076°32'0 0.0
2018-Jan-29 08:30N 39°14' W 076°32'0 0.0
2018-Jan-29 08:00N 39°14' W 076°32'0 0.0
2018-Jan-29 07:30N 39°14' W 076°32'0 0.0
2018-Jan-29 07:00N 39°14' W 076°32'0 0.0
2018-Jan-29 06:30N 39°14' W 076°32'0 0.0
2018-Jan-29 06:00N 39°14' W 076°32'0 0.0
2018-Jan-29 05:30N 39°14' W 076°32'0 0.0
2018-Jan-29 04:57N 39°14' W 076°32'0 0.0
2018-Jan-29 04:30N 39°14' W 076°32'0 0.0
2018-Jan-29 04:00N 39°14' W 076°32'0 0.0
2018-Jan-29 03:30N 39°14' W 076°32'0 0.0
2018-Jan-29 03:00N 39°14' W 076°32'0 0.0
2018-Jan-29 02:30N 39°14' W 076°32'0 0.0
2018-Jan-29 02:00N 39°14' W 076°32'0 0.0
2018-Jan-29 01:30N 39°14' W 076°32'0 0.0
2018-Jan-29 01:00N 39°14' W 076°32'0 0.2
2018-Jan-29 00:30N 39°14' W 076°32'1 2.7
2018-Jan-29 00:00N 39°13' W 076°32'5 9.1
2018-Jan-28 23:30N 39°11' W 076°26'612.4
2018-Jan-28 23:00N 39°05' W 076°24'612.6
2018-Jan-28 22:30N 38°59' W 076°23'2 4.6
2018-Jan-28 21:58N 38°56' W 076°24'0 0.0
2018-Jan-28 21:28N 38°56' W 076°24'0 0.1
2018-Jan-28 20:58N 38°56' W 076°24'0 0.0
2018-Jan-28 20:28N 38°56' W 076°24'0 0.0
2018-Jan-28 19:58N 38°56' W 076°24'0 0.1
2018-Jan-28 19:28N 38°56' W 076°24'0 0.0
2018-Jan-28 18:58N 38°56' W 076°24'0 0.0
2018-Jan-28 18:28N 38°56' W 076°24'0 0.0
2018-Jan-28 17:58N 38°56' W 076°24'0 0.0
2018-Jan-28 17:28N 38°56' W 076°24'0 0.0
2018-Jan-28 16:58N 38°56' W 076°24'0 0.0
2018-Jan-28 16:28N 38°56' W 076°24'0 0.0
2018-Jan-28 15:58N 38°56' W 076°24'0 0.0
2018-Jan-28 15:28N 38°56' W 076°24'0 0.0
2018-Jan-28 14:58N 38°56' W 076°24'0 0.0
2018-Jan-28 14:28N 38°56' W 076°24'0 0.0
2018-Jan-28 13:58N 38°56' W 076°24'0 0.0
2018-Jan-28 13:28N 38°56' W 076°24'0 0.0
2018-Jan-28 12:58N 38°56' W 076°24'0 0.0
2018-Jan-28 12:25N 38°56' W 076°24'0 0.0
2018-Jan-28 11:58N 38°56' W 076°24'0 0.0
2018-Jan-28 11:28N 38°56' W 076°24'0 0.2
2018-Jan-28 10:58N 38°56' W 076°24'0 0.0
2018-Jan-28 10:28N 38°56' W 076°24'0 0.0
2018-Jan-28 09:58N 38°56' W 076°24'0 0.0
2018-Jan-28 09:28N 38°56' W 076°24'0 0.0
2018-Jan-28 08:58N 38°56' W 076°24'0 0.1
2018-Jan-28 08:28N 38°56' W 076°24'0 0.0
2018-Jan-28 07:58N 38°56' W 076°24'0 0.0
2018-Jan-28 07:28N 38°56' W 076°24'0 0.0
2018-Jan-28 06:58N 38°56' W 076°24'0 0.0
2018-Jan-28 06:28N 38°56' W 076°24'0 0.0
2018-Jan-28 05:58N 38°56' W 076°24'0 0.0
2018-Jan-28 05:28N 38°56' W 076°24'0 0.1
2018-Jan-28 04:58N 38°56' W 076°24'0 0.0
2018-Jan-28 04:28N 38°56' W 076°24'0 0.0
2018-Jan-28 03:58N 38°56' W 076°24'0 0.1
2018-Jan-28 03:28N 38°56' W 076°24'0 0.0
2018-Jan-28 02:58N 38°56' W 076°24'0 0.0
2018-Jan-28 02:28N 38°56' W 076°24'0 0.0
2018-Jan-28 01:58N 38°56' W 076°24'0 0.0
2018-Jan-28 01:28N 38°56' W 076°24'0 0.0
2018-Jan-28 00:58N 38°56' W 076°24'0 0.0
2018-Jan-28 00:28N 38°56' W 076°24'0 0.0
2018-Jan-27 23:58N 38°56' W 076°24'0 0.0
2018-Jan-27 23:28N 38°56' W 076°24'0 0.0
2018-Jan-27 22:58N 38°56' W 076°24'0 0.0
2018-Jan-27 22:28N 38°56' W 076°24'0 0.0
2018-Jan-27 21:58N 38°56' W 076°24'0 0.1
2018-Jan-27 21:28N 38°56' W 076°24'0 0.1
2018-Jan-27 20:58N 38°56' W 076°24'0 0.0
2018-Jan-27 20:28N 38°56' W 076°24'0 0.0
2018-Jan-27 19:58N 38°56' W 076°24'0 0.0
2018-Jan-27 19:28N 38°56' W 076°24'0 0.0
2018-Jan-27 18:58N 38°56' W 076°24'0 0.0
2018-Jan-27 18:28N 38°56' W 076°24'0 0.0
2018-Jan-27 17:58N 38°56' W 076°24'0 0.0
2018-Jan-27 17:28N 38°56' W 076°24'0 0.0
2018-Jan-27 16:58N 38°56' W 076°24'0 0.0
2018-Jan-27 16:28N 38°56' W 076°24'0 0.0
2018-Jan-27 15:58N 38°56' W 076°24'0 0.0
2018-Jan-27 15:28N 38°56' W 076°24'0 0.1
2018-Jan-27 14:58N 38°56' W 076°24'0 0.1
2018-Jan-27 14:28N 38°56' W 076°24'0 0.0
2018-Jan-27 13:58N 38°56' W 076°24'0 0.0
2018-Jan-27 13:28N 38°56' W 076°24'0 0.1
2018-Jan-27 12:58N 38°56' W 076°24'0 0.0
2018-Jan-27 12:28N 38°56' W 076°24'0 0.0
2018-Jan-27 11:58N 38°56' W 076°24'0 0.0
2018-Jan-27 11:28N 38°56' W 076°24'0 0.0
2018-Jan-27 10:58N 38°56' W 076°24'0 0.0
2018-Jan-27 10:28N 38°56' W 076°24'0 0.0
2018-Jan-27 09:58N 38°56' W 076°24'0 0.1
2018-Jan-27 09:28N 38°56' W 076°24'0 0.0
2018-Jan-27 08:58N 38°56' W 076°24'0 0.0
2018-Jan-27 08:28N 38°56' W 076°24'0 0.1
2018-Jan-27 07:58N 38°56' W 076°24'0 0.0
2018-Jan-27 07:28N 38°56' W 076°24'0 0.1
2018-Jan-27 06:58N 38°56' W 076°24'0 0.1
2018-Jan-27 06:28N 38°56' W 076°24'0 0.1
2018-Jan-27 05:58N 38°56' W 076°24'0 0.0
2018-Jan-27 05:28N 38°56' W 076°24'0 0.1
2018-Jan-27 04:58N 38°56' W 076°24'0 0.0
2018-Jan-27 04:28N 38°56' W 076°24'0 0.0
2018-Jan-27 03:58N 38°56' W 076°24'0 0.0
2018-Jan-27 03:28N 38°56' W 076°24'0 0.0
2018-Jan-27 02:58N 38°56' W 076°24'0 0.1
2018-Jan-27 02:28N 38°56' W 076°24'0 0.1
2018-Jan-27 01:58N 38°56' W 076°24'0 0.0
2018-Jan-27 01:28N 38°56' W 076°24'0 0.1
2018-Jan-27 00:58N 38°56' W 076°24'0 0.0
2018-Jan-27 00:28N 38°56' W 076°24'0 0.0
2018-Jan-26 23:55N 38°56' W 076°24'0 0.0
2018-Jan-26 23:28N 38°56' W 076°24'0 0.0
2018-Jan-26 22:58N 38°56' W 076°24'0 0.0
2018-Jan-26 22:28N 38°56' W 076°24'0 0.1
2018-Jan-26 21:58N 38°56' W 076°24'0 0.0
2018-Jan-26 21:28N 38°56' W 076°24'0 0.1
2018-Jan-26 20:58N 38°56' W 076°24'0 0.1
2018-Jan-26 20:28N 38°56' W 076°24'0 0.0
2018-Jan-26 19:58N 38°56' W 076°24'0 0.0
2018-Jan-26 19:28N 38°56' W 076°24'0 0.0
2018-Jan-26 18:58N 38°56' W 076°24'0 0.0
2018-Jan-26 18:28N 38°56' W 076°24'0 0.0
2018-Jan-26 17:58N 38°56' W 076°24'0 0.0
2018-Jan-26 17:28N 38°56' W 076°24'0 0.0
2018-Jan-26 16:58N 38°56' W 076°24'0 0.0
2018-Jan-26 16:28N 38°56' W 076°24'0 0.0
2018-Jan-26 15:58N 38°56' W 076°24'0 0.0
2018-Jan-26 15:28N 38°56' W 076°24'0 0.0
2018-Jan-26 14:58N 38°56' W 076°24'0 0.0
2018-Jan-26 14:28N 38°56' W 076°24'0 0.0
2018-Jan-26 13:58N 38°56' W 076°24'0 0.0
2018-Jan-26 13:28N 38°56' W 076°24'0 0.0
2018-Jan-26 12:58N 38°56' W 076°24'0 0.0
2018-Jan-26 12:28N 38°56' W 076°24'0 0.0
2018-Jan-26 11:58N 38°56' W 076°24'0 0.0
2018-Jan-26 11:28N 38°56' W 076°24'0 0.0
2018-Jan-26 10:55N 38°56' W 076°24'0 0.0
2018-Jan-26 10:28N 38°56' W 076°24'0 0.0
2018-Jan-26 09:58N 38°56' W 076°24'0 0.0
2018-Jan-26 09:28N 38°56' W 076°24'0 0.0
2018-Jan-26 08:58N 38°56' W 076°24'0 0.0
2018-Jan-26 08:28N 38°56' W 076°24'0 0.0
2018-Jan-26 07:58N 38°56' W 076°24'0 0.0
2018-Jan-26 07:28N 38°56' W 076°24'0 0.0
2018-Jan-26 06:58N 38°56' W 076°24'0 0.0
2018-Jan-26 06:28N 38°56' W 076°24'0 0.0
2018-Jan-26 05:58N 38°56' W 076°24'0 0.0
2018-Jan-26 05:28N 38°56' W 076°24'0 0.0
2018-Jan-26 04:58N 38°56' W 076°24'0 0.0
2018-Jan-26 04:28N 38°56' W 076°24'0 0.0
2018-Jan-26 03:58N 38°56' W 076°24'0 0.0
2018-Jan-26 03:28N 38°56' W 076°24'0 0.0
2018-Jan-26 02:58N 38°56' W 076°24'1 3.0
2018-Jan-26 02:30N 38°58' W 076°24'613.0
2018-Jan-26 02:01N 39°04' W 076°24'714.2
2018-Jan-26 01:30N 39°11' W 076°27'611.5
2018-Jan-26 01:01N 39°14' W 076°33'1 1.9
2018-Jan-26 00:28N 39°14' W 076°34'0 0.0
2018-Jan-25 23:58N 39°14' W 076°34'0 0.0
2018-Jan-25 23:28N 39°14' W 076°34'0 0.0
2018-Jan-25 22:58N 39°14' W 076°34'0 0.0
2018-Jan-25 22:28N 39°14' W 076°34'0 0.0
2018-Jan-25 21:58N 39°14' W 076°34'0 0.0
2018-Jan-25 21:28N 39°14' W 076°34'0 0.0
2018-Jan-25 20:58N 39°14' W 076°34'0 0.0
2018-Jan-25 20:28N 39°14' W 076°34'0 0.0
2018-Jan-25 19:58N 39°14' W 076°34'0 0.0
2018-Jan-25 19:28N 39°14' W 076°34'0 0.0
2018-Jan-25 18:58N 39°14' W 076°34'0 0.0
2018-Jan-25 18:28N 39°14' W 076°34'0 0.0
2018-Jan-25 17:58N 39°14' W 076°34'0 0.0
2018-Jan-25 17:28N 39°14' W 076°34'0 0.0
2018-Jan-25 16:58N 39°14' W 076°34'0 0.0
2018-Jan-25 16:28N 39°14' W 076°34'0 0.0
2018-Jan-25 15:58N 39°14' W 076°34'0 0.0
2018-Jan-25 15:28N 39°14' W 076°34'0 0.0
2018-Jan-25 14:58N 39°14' W 076°34'0 0.0
2018-Jan-25 14:28N 39°14' W 076°34'0 0.0
2018-Jan-25 13:58N 39°14' W 076°34'0 0.0
2018-Jan-25 13:28N 39°14' W 076°34'0 0.0
2018-Jan-25 12:58N 39°14' W 076°34'0 0.0
2018-Jan-25 12:28N 39°14' W 076°34'0 0.0
2018-Jan-25 11:58N 39°14' W 076°34'0 0.0
2018-Jan-25 11:28N 39°14' W 076°34'0 0.0
2018-Jan-25 10:58N 39°14' W 076°34'0 0.0
2018-Jan-25 10:28N 39°14' W 076°34'0 0.0
2018-Jan-25 09:58N 39°14' W 076°34'0 0.0
2018-Jan-25 09:28N 39°14' W 076°34'0 0.0
2018-Jan-25 08:58N 39°14' W 076°34'0 0.0
2018-Jan-25 08:28N 39°14' W 076°34'0 0.0
2018-Jan-25 07:58N 39°14' W 076°34'0 0.0
2018-Jan-25 07:28N 39°14' W 076°34'0 0.0
2018-Jan-25 06:58N 39°14' W 076°34'0 0.0
2018-Jan-25 06:28N 39°14' W 076°34'0 0.0
2018-Jan-25 05:58N 39°14' W 076°34'0 0.0
2018-Jan-25 05:28N 39°14' W 076°34'0 0.0
2018-Jan-25 04:58N 39°14' W 076°34'0 0.0
2018-Jan-25 04:28N 39°14' W 076°34'0 0.0
2018-Jan-25 03:58N 39°14' W 076°34'0 0.0
2018-Jan-25 03:28N 39°14' W 076°34'0 0.0
2018-Jan-25 02:58N 39°14' W 076°34'1 1.3
2018-Jan-25 02:30N 39°15' W 076°33'2 3.3
2018-Jan-25 02:00N 39°13' W 076°32'3 6.1
2018-Jan-25 01:30N 39°12' W 076°29'3 6.1
2018-Jan-25 01:00N 39°10' W 076°25'5 9.4
2018-Jan-25 00:31N 39°09' W 076°19'510.9
2018-Jan-25 00:00N 39°13' W 076°15'611.9
2018-Jan-24 23:30N 39°19' W 076°13'713.4
2018-Jan-24 23:00N 39°23' W 076°06'611.8
2018-Jan-24 22:30N 39°26' W 076°00'5 9.9
2018-Jan-24 22:00N 39°30' W 075°56'4 7.5
2018-Jan-24 21:30N 39°32' W 075°51'3 5.3
2018-Jan-24 21:01N 39°32' W 075°48'4 7.6
2018-Jan-24 20:30N 39°33' W 075°43'4 8.6
2018-Jan-24 20:00N 39°33' W 075°38'4 8.0
2018-Jan-24 19:31N 39°32' W 075°33'815.5
2018-Jan-24 19:01N 39°25' W 075°31'918.3
2018-Jan-24 18:31N 39°18' W 075°23'917.8
2018-Jan-24 18:00N 39°11' W 075°16'917.8
2018-Jan-24 17:31N 39°03' W 075°10'917.9
2018-Jan-24 17:01N 38°55' W 075°06'70 8.4
2018-Jan-24 08:45N 39°36' W 073°53'712.2
2018-Jan-24 08:12N 39°42' W 073°52'312.5
2018-Jan-24 07:59N 39°45' W 073°51'2611.3
2018-Jan-24 05:40N 40°11' W 073°50'3 9.2
2018-Jan-24 05:22N 40°14' W 073°50'4 9.3
2018-Jan-24 04:57N 40°18' W 073°49'4 9.3
2018-Jan-24 04:31N 40°22' W 073°49'5 8.9
2018-Jan-24 04:00N 40°27' W 073°49'4 7.9
2018-Jan-24 03:29N 40°29' W 073°53'510.5
2018-Jan-24 03:00N 40°31' W 073°59'611.2
2018-Jan-24 02:29N 40°36' W 074°03'4 7.7
2018-Jan-24 02:00N 40°39' W 074°06'2 4.3
2018-Jan-24 01:31N 40°40' W 074°09'2 4.1
2018-Jan-24 01:00N 40°42' W 074°08'0 0.2
2018-Jan-24 00:30N 40°42' W 074°08'0 0.0
2018-Jan-24 00:00N 40°42' W 074°08'0 0.0
2018-Jan-23 23:30N 40°42' W 074°08'0 0.0
2018-Jan-23 23:00N 40°42' W 074°08'0 0.0
2018-Jan-23 22:30N 40°42' W 074°08'0 0.0
2018-Jan-23 22:00N 40°42' W 074°08'0 0.0
2018-Jan-23 21:30N 40°42' W 074°08'0 0.0
2018-Jan-23 21:00N 40°42' W 074°08'0 0.0
2018-Jan-23 20:30N 40°42' W 074°08'0 0.0
2018-Jan-23 20:00N 40°42' W 074°08'0 0.0
2018-Jan-23 19:30N 40°42' W 074°08'0 0.0
2018-Jan-23 19:00N 40°42' W 074°08'0 0.0
2018-Jan-23 18:30N 40°42' W 074°08'0 0.0
2018-Jan-23 18:00N 40°42' W 074°08'0 0.0
2018-Jan-23 17:30N 40°42' W 074°08'0 0.0
2018-Jan-23 17:00N 40°42' W 074°08'0 0.0
2018-Jan-23 16:30N 40°42' W 074°08'0 0.0
2018-Jan-23 16:00N 40°42' W 074°08'0 0.0
2018-Jan-23 15:30N 40°42' W 074°08'0 0.0
2018-Jan-23 15:00N 40°42' W 074°08'0 0.0
2018-Jan-23 14:30N 40°42' W 074°08'0 0.0
2018-Jan-23 14:00N 40°42' W 074°08'0 0.0
2018-Jan-23 13:30N 40°42' W 074°08'0 0.0
2018-Jan-23 13:00N 40°42' W 074°08'0 0.0
2018-Jan-23 12:30N 40°42' W 074°08'0 0.0
2018-Jan-23 12:00N 40°42' W 074°08'0 0.2
2018-Jan-23 11:30N 40°42' W 074°08'2 3.7
2018-Jan-23 11:00N 40°40' W 074°08'1 2.9
2018-Jan-23 10:30N 40°39' W 074°07'3 6.0
2018-Jan-23 10:00N 40°39' W 074°03'4 7.5
2018-Jan-23 09:30N 40°35' W 074°02'5 9.5
2018-Jan-23 09:00N 40°31' W 073°59'5 9.3
2018-Jan-23 08:30N 40°29' W 073°54'5 9.1
2018-Jan-23 08:00N 40°27' W 073°48'4 7.8
2018-Jan-23 07:30N 40°23' W 073°47'3 6.2
2018-Jan-23 06:58N 40°20' W 073°46'  

Dump ship's entire track history